Time;durP1;ratioP1;P1;durP2;ratioP2;P2;SDS_P1;SDS_P2;PMS_P1;PMS_P2;Temp;Humidity;BMP_temperature;BMP_pressure;BME280_temperature;BME280_humidity;BME280_pressure;Samples;Min_cycle;Max_cycle;Signal;HPM_P1;HPM_P2
2022/11/10 00:01:52;;;;;;;13.80;4.17;;;;;;;15.52;68.11;97844.78;5064797;28;20336;-70
2022/11/10 00:04:17;;;;;;;6.23;3.70;;;;;;;15.52;68.21;97841.34;5065823;28;20191;-68
2022/11/10 00:06:45;;;;;;;5.70;3.40;;;;;;;15.50;68.50;97838.84;5062710;28;20179;-70
2022/11/10 00:09:11;;;;;;;7.50;3.50;;;;;;;15.47;68.45;97838.38;5059479;28;20183;-71
2022/11/10 00:11:37;;;;;;;6.20;2.90;;;;;;;15.39;68.60;97849.75;5034145;28;20445;-71
2022/11/10 00:17:00;;;;;;;5.20;3.00;;;;;;;15.37;69.02;97870.25;5041265;28;20417;-71
2022/11/10 00:19:27;;;;;;;8.17;3.20;;;;;;;15.40;68.72;97859.34;5046719;28;20424;-68
2022/11/10 00:21:52;;;;;;;5.20;2.57;;;;;;;15.42;68.75;97862.63;5062875;28;20465;-69
2022/11/10 00:24:18;;;;;;;4.50;2.27;;;;;;;15.44;68.59;97860.66;5055410;28;20457;-68
2022/11/10 00:26:43;;;;;;;2.50;2.30;;;;;;;15.35;68.48;97867.75;5068027;28;20214;-69
2022/11/10 00:29:09;;;;;;;5.17;2.30;;;;;;;15.37;68.68;97870.25;5064290;28;20186;-69
2022/11/10 00:31:36;;;;;;;9.13;2.30;;;;;;;15.27;68.93;97865.13;5060271;28;20665;-69
2022/11/10 00:34:02;;;;;;;2.40;2.20;;;;;;;15.27;69.06;97872.22;5073631;28;20186;-69
2022/11/10 00:36:28;;;;;;;4.60;2.30;;;;;;;15.31;69.07;97866.44;5064113;28;20416;-69
2022/11/10 00:38:53;;;;;;;3.83;2.43;;;;;;;15.33;68.98;97874.22;5065922;28;20293;-69
2022/11/10 00:41:19;;;;;;;2.40;2.20;;;;;;;15.34;68.84;97870.59;5062373;28;20336;-70
2022/11/10 00:43:45;;;;;;;4.50;2.07;;;;;;;15.37;68.63;97870.25;5060321;28;20194;-70
2022/11/10 00:46:10;;;;;;;5.60;2.10;;;;;;;15.39;68.54;97872.72;5067551;28;20189;-69
2022/11/10 00:48:35;;;;;;;2.23;2.03;;;;;;;15.38;68.57;97877.16;5063566;28;20266;-71
2022/11/10 00:51:01;;;;;;;2.40;2.20;;;;;;;15.27;68.63;97880.97;5067120;28;20194;-70
2022/11/10 00:53:26;;;;;;;4.03;2.73;;;;;;;15.22;69.17;97880.63;5066996;28;20178;-70
2022/11/10 00:55:52;;;;;;;2.73;2.40;;;;;;;15.19;69.10;97884.44;5066018;28;20204;-70
2022/11/10 00:58:17;;;;;;;9.40;3.20;;;;;;;15.29;68.92;97889.56;5067870;28;20222;-70
2022/11/10 01:00:43;;;;;;;9.70;3.00;;;;;;;15.31;68.83;97897.31;5052928;28;20720;-69
2022/11/10 01:03:15;;;;;;;4.53;2.83;;;;;;;15.35;68.83;97904.75;5066840;28;20281;-70
2022/11/10 01:05:41;;;;;;;5.07;2.77;;;;;;;15.35;68.63;97909.22;5063188;28;20269;-70
2022/11/10 01:08:07;;;;;;;3.30;2.80;;;;;;;15.36;68.54;97906.38;5058989;28;20421;-70
2022/11/10 01:10:32;;;;;;;2.87;2.63;;;;;;;15.31;68.86;97916.63;5064119;28;20490;-71
2022/11/10 01:12:58;;;;;;;4.80;2.53;;;;;;;15.35;68.52;97919.78;5065719;28;20183;-71
2022/11/10 01:15:24;;;;;;;3.73;2.40;;;;;;;15.38;68.93;97926.53;5062614;28;20186;-71
2022/11/10 01:17:50;;;;;;;9.83;2.70;;;;;;;15.40;68.72;97920.09;5059372;28;20705;-70
2022/11/10 01:20:16;;;;;;;3.33;2.90;;;;;;;15.38;68.79;97919.41;5067122;28;20186;-70
2022/11/10 01:22:42;;;;;;;3.57;3.27;;;;;;;15.41;68.92;97924.38;5060617;28;20472;-69
2022/11/10 01:25:08;;;;;;;5.47;3.83;;;;;;;15.43;68.60;97925.03;5066517;28;20189;-71
2022/11/10 01:27:33;;;;;;;4.90;3.30;;;;;;;15.43;68.67;97930.31;5064774;28;20205;-70
2022/11/10 01:29:59;;;;;;;4.73;3.40;;;;;;;15.40;68.83;97930.66;5062628;28;20903;-69
2022/11/10 01:32:24;;;;;;;5.33;3.20;;;;;;;15.42;68.60;97933.16;5063163;28;20190;-70
2022/11/10 01:34:49;;;;;;;3.37;2.97;;;;;;;15.32;68.67;97928.81;5067898;28;20197;-70
2022/11/10 01:37:15;;;;;;;3.07;2.77;;;;;;;15.31;68.81;97940.38;5060109;28;20183;-69
2022/11/10 01:39:40;;;;;;;4.57;2.97;;;;;;;15.30;68.87;97941.41;5070524;28;20198;-70
2022/11/10 01:42:06;;;;;;;8.23;2.47;;;;;;;15.27;68.54;97941.72;5055946;28;20293;-70
2022/11/10 01:44:33;;;;;;;4.90;2.40;;;;;;;15.30;68.55;97951.13;5062086;28;20175;-69
2022/11/10 01:46:59;;;;;;;4.50;2.67;;;;;;;15.29;68.40;97946.81;5062806;28;20189;-71
2022/11/10 01:49:26;;;;;;;2.73;2.47;;;;;;;15.26;68.44;97941.88;5062993;28;20413;-70
2022/11/10 01:52:00;;;;;;;3.80;2.70;;;;;;;15.23;68.08;97948.31;5066532;28;20215;-69
2022/11/10 01:54:28;;;;;;;3.00;2.70;;;;;;;15.22;68.08;97951.13;5061724;28;20419;-70
2022/11/10 01:56:59;;;;;;;3.40;2.53;;;;;;;15.19;68.10;97957.53;5066792;28;20456;-69
2022/11/10 01:59:26;;;;;;;4.47;2.57;;;;;;;15.19;68.06;97958.38;5054013;28;21001;-70
2022/11/10 02:01:54;;;;;;;2.77;2.53;;;;;;;15.09;68.18;97960.34;5058073;28;20904;-69
2022/11/10 02:04:19;;;;;;;8.00;2.57;;;;;;;15.05;68.23;97962.50;5056991;28;20545;-69
2022/11/10 02:06:47;;;;;;;4.93;2.60;;;;;;;15.11;68.11;97958.38;5046706;28;20452;-69
2022/11/10 02:09:12;;;;;;;16.80;3.33;;;;;;;15.00;67.91;97962.16;5059269;28;20898;-71
2022/11/10 02:11:39;;;;;;;6.27;3.13;;;;;;;14.92;68.25;97956.00;5056341;28;20450;-70
2022/11/10 02:14:05;;;;;;;2.90;2.57;;;;;;;14.95;68.15;97955.69;5058797;28;20183;-69
2022/11/10 02:16:31;;;;;;;4.93;2.90;;;;;;;14.93;68.21;97968.22;5055235;28;20486;-69
2022/11/10 02:18:56;;;;;;;2.73;2.10;;;;;;;14.95;67.96;97964.44;5065954;28;20221;-69
2022/11/10 02:21:22;;;;;;;9.67;2.33;;;;;;;14.94;67.87;97970.69;5054844;28;20465;-69
2022/11/10 02:23:50;;;;;;;6.43;2.57;;;;;;;14.93;67.57;97973.50;5069599;28;20202;-69
2022/11/10 02:26:20;;;;;;;4.47;2.20;;;;;;;14.87;67.63;97975.78;5060944;28;20179;-71
2022/11/10 02:28:45;;;;;;;4.10;2.30;;;;;;;14.81;67.33;97976.44;5050647;28;20412;-70
2022/11/10 02:31:11;;;;;;;9.17;2.97;;;;;;;14.69;67.33;97980.38;5058679;28;20509;-70
2022/11/10 02:33:37;;;;;;;2.63;2.43;;;;;;;14.68;67.28;97987.44;5056638;28;20213;-70
2022/11/10 02:36:02;;;;;;;3.03;2.60;;;;;;;14.68;67.21;97991.91;5069305;28;20214;-70
2022/11/10 02:38:28;;;;;;;2.80;2.43;;;;;;;14.68;67.18;97987.44;5068460;28;20486;-70
2022/11/10 02:40:53;;;;;;;4.53;2.70;;;;;;;14.64;67.13;97990.53;5060059;28;20217;-70
2022/11/10 02:43:19;;;;;;;5.00;2.93;;;;;;;14.58;66.86;97998.09;5068531;28;20179;-71
2022/11/10 02:45:44;;;;;;;8.80;4.50;;;;;;;14.57;67.15;98001.72;5067102;28;20814;-70
2022/11/10 02:48:11;;;;;;;3.50;3.20;;;;;;;14.54;66.97;98007.31;5068382;28;20191;-69
2022/11/10 02:50:37;;;;;;;5.53;2.67;;;;;;;14.50;67.22;98010.44;5067765;28;20180;-70
2022/11/10 02:53:03;;;;;;;12.33;3.07;;;;;;;14.42;66.99;98016.47;5051110;28;20434;-70
2022/11/10 02:55:28;;;;;;;2.53;2.33;;;;;;;14.46;67.04;98015.19;5033849;28;20170;-70
2022/11/10 02:57:54;;;;;;;3.80;2.90;;;;;;;14.43;66.95;98023.41;5063506;28;20563;-69
2022/11/10 03:00:19;;;;;;;76.00;4.30;;;;;;;14.46;66.88;98020.47;5067654;28;20190;-69
2022/11/10 03:02:45;;;;;;;114.70;5.07;;;;;;;14.41;67.10;98028.00;5032650;28;20324;-69
2022/11/10 03:05:10;;;;;;;4.83;3.70;;;;;;;14.40;67.36;98031.63;5065025;28;20186;-70
2022/11/10 03:07:36;;;;;;;19.63;3.77;;;;;;;14.27;67.06;98035.53;5056416;28;20190;-69
2022/11/10 03:10:01;;;;;;;5.83;3.13;;;;;;;14.11;67.45;98035.44;5057150;28;20236;-69
2022/11/10 03:12:27;;;;;;;4.83;3.17;;;;;;;14.08;67.23;98036.53;5069100;28;20194;-69
2022/11/10 03:14:52;;;;;;;5.07;3.37;;;;;;;14.05;67.27;98043.94;5064881;28;20189;-68
2022/11/10 03:17:18;;;;;;;7.33;2.80;;;;;;;13.99;67.01;98040.13;5068107;28;20201;-69
2022/11/10 03:19:43;;;;;;;2.90;2.60;;;;;;;14.03;66.88;98043.25;5067816;28;20210;-70
2022/11/10 03:22:09;;;;;;;2.90;2.60;;;;;;;14.06;66.00;98045.59;5070761;28;20209;-70
2022/11/10 03:24:34;;;;;;;5.30;3.07;;;;;;;13.98;66.32;98052.47;5069067;28;20254;-71
2022/11/10 03:27:00;;;;;;;3.30;2.93;;;;;;;13.95;66.34;98051.94;5062809;28;20273;-70
2022/11/10 03:29:25;;;;;;;5.53;2.70;;;;;;;13.94;65.86;98059.03;5068391;28;20186;-70
2022/11/10 03:31:51;;;;;;;2.60;2.40;;;;;;;13.93;66.08;98073.19;5066706;28;20209;-69
2022/11/10 03:34:16;;;;;;;3.97;2.27;;;;;;;13.86;66.02;98074.75;5068338;28;20201;-69
2022/11/10 03:36:41;;;;;;;2.30;2.10;;;;;;;13.86;65.98;98074.75;5066737;28;20265;-70
2022/11/10 03:39:07;;;;;;;4.80;2.70;;;;;;;13.88;66.09;98072.78;5070312;28;20262;-69
2022/11/10 03:41:32;;;;;;;6.90;4.30;;;;;;;13.78;65.67;98070.25;5067105;28;20256;-70
2022/11/10 03:43:58;;;;;;;6.30;3.70;;;;;;;13.82;65.60;98078.69;5064720;28;20546;-69
2022/11/10 03:46:23;;;;;;;11.03;3.17;;;;;;;13.82;65.21;98070.78;5066540;28;20268;-70
2022/11/10 03:48:49;;;;;;;3.10;2.67;;;;;;;13.84;64.96;98076.72;5066480;28;20183;-70
2022/11/10 03:51:14;;;;;;;2.53;2.33;;;;;;;13.75;64.88;98081.09;5059993;28;20206;-69
2022/11/10 03:53:40;;;;;;;2.73;2.30;;;;;;;13.70;64.70;98083.34;5065772;28;20197;-71
2022/11/10 03:56:05;;;;;;;4.20;2.90;;;;;;;13.70;65.06;98082.53;5069639;28;20680;-69
2022/11/10 03:58:31;;;;;;;4.27;2.43;;;;;;;13.70;64.48;98080.72;5067490;28;20285;-70
2022/11/10 04:00:57;;;;;;;3.10;2.80;;;;;;;13.62;64.56;98092.00;5063095;28;20217;-69
2022/11/10 04:03:23;;;;;;;6.97;2.73;;;;;;;13.63;64.52;98091.03;5066405;28;20253;-69
2022/11/10 04:15:40;;;;;;;2.00;1.80;;;;;;;13.59;64.19;98108.13;5068726;28;20440;-69
2022/11/10 04:16:45;;;;;;;10.93;2.13;;;;;;;13.48;63.98;98111.78;5059767;28;20425;-68
2022/11/10 04:19:10;;;;;;;4.83;2.20;;;;;;;13.36;64.01;98123.47;5062905;28;20428;-69
2022/11/10 04:21:36;;;;;;;6.60;2.77;;;;;;;13.29;64.40;98128.50;5063027;28;20304;-68
2022/11/10 04:24:01;;;;;;;4.33;2.47;;;;;;;13.31;63.76;98126.56;5059681;28;20179;-68
2022/11/10 04:26:27;;;;;;;8.67;2.03;;;;;;;13.29;63.71;98133.75;5062170;28;20178;-68
2022/11/10 04:28:57;;;;;;;11.53;2.97;;;;;;;13.27;63.58;98134.91;5058354;28;20182;-69
2022/11/10 04:31:24;;;;;;;4.13;1.93;;;;;;;13.25;63.60;98137.66;5064320;28;20761;-69
2022/11/10 04:33:50;;;;;;;4.80;2.13;;;;;;;13.25;63.70;98148.19;5057420;28;20441;-69
2022/11/10 04:36:18;;;;;;;5.73;2.37;;;;;;;13.33;63.77;98139.56;5063564;28;20466;-69
2022/11/10 04:38:44;;;;;;;2.73;2.33;;;;;;;13.32;63.31;98151.06;5054826;28;20421;-70
2022/11/10 04:41:09;;;;;;;4.33;2.33;;;;;;;13.21;63.55;98147.66;5039478;28;20467;-69
2022/11/10 04:43:35;;;;;;;4.50;2.43;;;;;;;13.28;63.57;98147.91;5052135;28;20179;-69
2022/11/10 04:46:02;;;;;;;11.67;2.60;;;;;;;13.27;63.09;98146.25;5051427;28;20848;-69
2022/11/10 04:48:28;;;;;;;2.67;2.47;;;;;;;13.28;63.32;98152.34;5043439;28;20494;-70
2022/11/10 04:50:53;;;;;;;3.60;2.20;;;;;;;13.28;63.15;98160.25;5051077;28;20446;-70
2022/11/10 04:53:19;;;;;;;4.13;2.60;;;;;;;13.19;63.49;98164.56;5051237;28;20480;-69
2022/11/10 04:55:45;;;;;;;5.00;3.13;;;;;;;13.11;63.78;98172.34;5057036;28;20171;-69
2022/11/10 04:58:11;;;;;;;2.83;2.43;;;;;;;13.16;63.40;98175.38;5046897;28;20274;-70
2022/11/10 05:00:37;;;;;;;6.57;2.50;;;;;;;13.04;63.36;98183.47;5051631;28;20203;-70
2022/11/10 05:03:04;;;;;;;5.70;2.20;;;;;;;13.01;63.11;98182.94;5051355;28;20430;-69
2022/11/10 05:05:30;;;;;;;11.30;5.67;;;;;;;13.04;62.91;98183.47;5052765;28;20701;-70
2022/11/10 05:07:56;;;;;;;11.80;5.10;;;;;;;12.89;63.27;98177.00;5046504;28;20417;-69
2022/11/10 05:10:22;;;;;;;6.30;2.97;;;;;;;12.92;62.83;98179.34;5052206;28;20838;-69
2022/11/10 05:12:47;;;;;;;4.53;2.77;;;;;;;12.87;63.04;98186.84;5050955;28;20209;-69
2022/11/10 05:15:13;;;;;;;8.00;3.00;;;;;;;12.88;63.22;98196.38;5051685;28;20218;-68
2022/11/10 05:17:38;;;;;;;5.10;2.77;;;;;;;12.88;63.32;98201.66;5046430;28;20701;-69
2022/11/10 05:20:05;;;;;;;3.07;2.53;;;;;;;12.91;63.24;98204.00;5053233;28;20236;-69
2022/11/10 05:22:30;;;;;;;4.30;2.57;;;;;;;12.89;63.50;98205.94;5043098;28;20203;-69
2022/11/10 05:24:56;;;;;;;12.40;3.47;;;;;;;12.86;62.94;98206.22;5051168;28;20837;-68
2022/11/10 05:27:21;;;;;;;2.70;2.50;;;;;;;12.79;63.13;98211.22;5055681;28;20183;-68
2022/11/10 05:29:46;;;;;;;5.30;3.37;;;;;;;12.73;62.97;98206.53;5051260;28;20228;-70
2022/11/10 05:32:12;;;;;;;4.80;3.20;;;;;;;12.74;63.40;98211.66;5050187;28;20286;-68
2022/11/10 05:34:37;;;;;;;4.60;3.60;;;;;;;12.68;62.81;98221.91;5050875;28;20198;-68
2022/11/10 05:37:03;;;;;;;6.07;3.30;;;;;;;12.70;62.72;98218.19;5054050;28;20198;-68
2022/11/10 05:39:28;;;;;;;3.83;2.97;;;;;;;12.69;62.26;98213.03;5052905;28;20190;-69
2022/11/10 05:41:54;;;;;;;3.00;2.70;;;;;;;12.70;62.45;98219.97;5053723;28;20211;-70
2022/11/10 05:44:19;;;;;;;12.10;2.60;;;;;;;12.70;62.21;98228.69;5050176;28;20426;-69
2022/11/10 05:46:44;;;;;;;4.90;2.67;;;;;;;12.65;62.74;98225.66;5053625;28;20614;-69
2022/11/10 05:49:10;;;;;;;7.30;3.00;;;;;;;12.63;62.72;98226.78;5049621;28;20629;-70
2022/11/10 05:51:35;;;;;;;9.13;3.20;;;;;;;12.63;62.63;98230.22;5050549;28;20274;-69
2022/11/10 05:54:01;;;;;;;8.37;2.50;;;;;;;12.62;62.66;98225.94;5050094;28;20210;-71
2022/11/10 05:56:26;;;;;;;13.70;2.80;;;;;;;12.59;62.62;98223.59;5056115;28;20183;-70
2022/11/10 05:58:52;;;;;;;3.93;2.60;;;;;;;12.59;62.45;98226.22;5050589;28;20265;-70
2022/11/10 06:01:17;;;;;;;5.47;3.30;;;;;;;12.55;62.52;98222.22;5048592;28;20297;-70
2022/11/10 06:03:42;;;;;;;8.00;3.13;;;;;;;12.55;62.13;98224.84;5049462;28;20270;-71
2022/11/10 06:06:08;;;;;;;6.57;3.00;;;;;;;12.46;62.54;98231.75;5052844;28;20711;-70
2022/11/10 06:08:33;;;;;;;4.93;2.90;;;;;;;12.47;62.25;98237.88;5045516;28;20308;-69
2022/11/10 06:10:59;;;;;;;6.00;3.07;;;;;;;12.44;62.57;98255.56;5053646;28;20633;-70
2022/11/10 06:13:24;;;;;;;3.37;2.97;;;;;;;12.44;62.20;98249.47;5050530;28;20635;-70
2022/11/10 06:15:50;;;;;;;13.27;6.97;;;;;;;12.39;62.46;98254.34;5056376;28;20182;-69
2022/11/10 06:18:16;;;;;;;8.20;6.10;;;;;;;12.44;62.55;98268.72;5050305;28;20190;-70
2022/11/10 06:20:41;;;;;;;10.87;6.63;;;;;;;12.46;62.13;98280.91;5050153;28;20626;-69
2022/11/10 06:23:10;;;;;;;11.00;6.23;;;;;;;12.42;62.09;98283.81;5049740;28;20179;-69
2022/11/10 06:25:36;;;;;;;5.47;4.70;;;;;;;12.38;61.65;98284.22;5049595;28;20186;-68
2022/11/10 06:28:03;;;;;;;5.80;4.10;;;;;;;12.26;61.78;98283.50;5044468;28;20768;-70
2022/11/10 06:30:29;;;;;;;8.73;4.10;;;;;;;12.27;61.74;98283.38;5047867;28;20409;-70
2022/11/10 06:32:55;;;;;;;8.70;4.10;;;;;;;12.28;61.63;98282.41;5047906;28;20972;-69
2022/11/10 06:35:22;;;;;;;7.80;3.60;;;;;;;12.21;62.31;98291.78;5054644;28;20475;-71
2022/11/10 06:38:01;;;;;;;11.73;5.57;;;;;;;12.12;62.55;98297.88;5049929;28;20175;-71
2022/11/10 06:40:26;;;;;;;6.87;5.63;;;;;;;12.12;63.29;98314.47;5039362;28;20860;-70
2022/11/10 06:42:52;;;;;;;10.33;6.30;;;;;;;12.22;63.26;98318.94;5044779;28;20445;-68
2022/11/10 06:45:17;;;;;;;13.97;6.80;;;;;;;12.25;63.01;98323.88;5049468;28;20197;-69
2022/11/10 06:47:43;;;;;;;11.50;7.43;;;;;;;12.18;62.55;98325.41;5044327;28;20183;-70
2022/11/10 06:50:08;;;;;;;9.60;5.70;;;;;;;12.18;62.68;98338.56;5049957;28;20191;-69
2022/11/10 06:52:34;;;;;;;10.83;6.00;;;;;;;12.21;62.61;98348.81;5049656;28;20234;-69
2022/11/10 06:55:00;;;;;;;9.20;5.00;;;;;;;12.26;62.59;98357.09;5050096;28;20195;-70
2022/11/10 06:57:25;;;;;;;7.10;5.50;;;;;;;12.00;63.08;98360.19;5047809;28;20213;-69
2022/11/10 06:59:51;;;;;;;10.93;9.53;;;;;;;12.02;63.51;98365.34;5049987;28;20797;-70
2022/11/10 07:02:16;;;;;;;11.30;8.27;;;;;;;12.09;63.19;98374.34;5048333;28;20214;-70
2022/11/10 07:04:42;;;;;;;6.27;5.23;;;;;;;12.16;63.04;98378.09;5048660;28;20266;-70
2022/11/10 07:07:07;;;;;;;8.77;5.07;;;;;;;12.14;63.09;98385.31;5050208;28;20180;-69
2022/11/10 07:09:33;;;;;;;8.80;4.80;;;;;;;12.24;63.56;98387.94;5048540;28;20180;-69
2022/11/10 07:11:58;;;;;;;6.10;4.60;;;;;;;12.21;63.70;98385.59;5047481;28;20484;-70
2022/11/10 07:14:24;;;;;;;13.97;7.37;;;;;;;12.13;63.83;98384.44;5050787;28;20198;-70
2022/11/10 07:16:49;;;;;;;11.00;8.70;;;;;;;12.22;64.10;98385.44;5040914;28;20244;-70
2022/11/10 07:19:15;;;;;;;16.40;11.17;;;;;;;12.36;64.19;98402.63;5038038;28;20633;-72
2022/11/10 07:21:41;;;;;;;14.73;10.63;;;;;;;12.53;64.65;98410.84;5043498;28;20202;-70
2022/11/10 07:24:07;;;;;;;22.73;16.03;;;;;;;12.73;65.01;98414.34;5041403;28;20183;-71
2022/11/10 07:26:32;;;;;;;35.97;20.53;;;;;;;12.93;66.13;98409.94;5043716;28;20932;-71
2022/11/10 07:28:58;;;;;;;25.90;18.60;;;;;;;13.13;65.96;98412.56;5044886;28;20294;-70
2022/11/10 07:31:23;;;;;;;21.30;12.83;;;;;;;13.30;65.89;98426.81;5039751;28;20215;-71
2022/11/10 07:33:48;;;;;;;16.17;11.60;;;;;;;13.48;65.29;98421.72;5052297;28;20248;-70
2022/11/10 07:36:14;;;;;;;32.00;21.17;;;;;;;13.57;63.99;98434.03;5047077;28;20570;-71
2022/11/10 07:38:40;;;;;;;97.47;61.93;;;;;;;13.74;63.63;98431.63;5034710;28;20257;-70
2022/11/10 07:41:05;;;;;;;76.57;50.13;;;;;;;13.91;63.55;98436.16;5037618;28;20220;-70
2022/11/10 07:43:31;;;;;;;47.57;32.13;;;;;;;14.18;63.09;98429.28;5050103;28;20187;-72
2022/11/10 07:45:56;;;;;;;24.60;12.53;;;;;;;14.38;62.19;98434.44;5048746;28;20515;-71
2022/11/10 07:48:22;;;;;;;40.60;25.77;;;;;;;14.62;62.04;98443.66;5042402;28;20793;-71
2022/11/10 07:50:49;;;;;;;34.57;22.47;;;;;;;14.95;61.49;98436.09;5043830;28;20224;-72
2022/11/10 07:53:18;;;;;;;27.23;17.63;;;;;;;15.21;60.19;98436.16;5045047;28;20186;-71
2022/11/10 07:55:45;;;;;;;16.80;9.60;;;;;;;15.44;59.69;98433.03;5047824;28;20410;-71
2022/11/10 07:58:16;;;;;;;10.87;7.53;;;;;;;15.66;58.72;98437.84;5038252;28;20444;-72
2022/11/10 08:00:42;;;;;;;14.43;10.00;;;;;;;15.93;58.15;98437.84;5046243;28;20429;-73
2022/11/10 08:03:13;;;;;;;17.40;11.80;;;;;;;16.23;57.75;98443.63;5044658;28;20517;-72
2022/11/10 08:05:38;;;;;;;17.70;11.40;;;;;;;16.66;56.92;98441.78;5040623;28;20426;-73
2022/11/10 08:08:04;;;;;;;16.13;12.00;;;;;;;17.04;56.28;98455.47;5046794;28;20897;-74
2022/11/10 08:10:31;;;;;;;12.80;9.80;;;;;;;17.35;55.26;98452.22;5056443;28;20179;-73
2022/11/10 08:12:57;;;;;;;8.30;5.97;;;;;;;17.54;53.93;98457.34;5049577;28;20234;-73
2022/11/10 08:15:24;;;;;;;8.73;5.53;;;;;;;17.46;53.58;98452.88;5061404;28;20980;-73
2022/11/10 08:17:49;;;;;;;6.23;4.30;;;;;;;17.61;52.72;98458.31;5056388;28;20837;-74
2022/11/10 08:20:16;;;;;;;6.87;4.87;;;;;;;17.60;53.44;98460.16;5050832;28;20426;-73
2022/11/10 08:22:42;;;;;;;9.13;6.63;;;;;;;17.95;53.39;98468.72;5051897;28;20215;-73
2022/11/10 08:25:07;;;;;;;12.07;7.53;;;;;;;18.46;52.83;98462.28;5052202;28;20794;-73
2022/11/10 08:27:33;;;;;;;10.13;4.90;;;;;;;18.83;51.52;98470.59;5051353;28;20266;-73
2022/11/10 08:29:58;;;;;;;7.30;4.50;;;;;;;18.80;51.29;98471.75;5052708;28;20604;-72
2022/11/10 08:32:24;;;;;;;10.27;4.57;;;;;;;19.06;51.40;98475.94;5050251;28;20657;-72
2022/11/10 08:34:49;;;;;;;5.73;4.00;;;;;;;19.07;50.67;98472.28;5052221;28;20285;-73
2022/11/10 08:37:14;;;;;;;10.03;5.30;;;;;;;19.23;50.51;98475.84;5051919;28;20186;-73
2022/11/10 08:39:40;;;;;;;10.00;5.13;;;;;;;19.30;50.93;98474.13;5050958;28;20186;-73
2022/11/10 08:42:05;;;;;;;5.30;2.47;;;;;;;19.48;48.45;98464.00;5052027;28;20211;-73
2022/11/10 08:44:31;;;;;;;5.73;2.70;;;;;;;19.72;46.33;98475.44;5044534;28;20190;-73
2022/11/10 08:46:56;;;;;;;5.23;1.80;;;;;;;19.94;44.88;98478.25;5050297;28;20273;-73
2022/11/10 08:49:22;;;;;;;4.00;1.60;;;;;;;20.13;44.48;98476.06;5050862;28;20179;-73
2022/11/10 08:51:47;;;;;;;6.67;2.00;;;;;;;20.27;44.03;98477.91;5052179;28;20210;-72
2022/11/10 08:54:12;;;;;;;3.13;1.70;;;;;;;20.38;44.24;98479.28;5051740;28;20273;-73
2022/11/10 08:56:38;;;;;;;6.80;2.00;;;;;;;20.46;43.11;98484.53;5051230;28;20665;-73
2022/11/10 08:59:03;;;;;;;5.83;1.83;;;;;;;20.58;42.65;98490.19;5059897;28;20651;-73
2022/11/10 09:01:29;;;;;;;3.57;1.60;;;;;;;20.53;41.85;98489.94;5049942;28;20222;-72
2022/11/10 09:03:54;;;;;;;5.33;1.27;;;;;;;20.61;42.21;98494.31;5052134;28;20191;-72
2022/11/10 09:06:20;;;;;;;4.90;1.73;;;;;;;20.65;42.00;98496.44;5044828;28;20270;-73
2022/11/10 09:08:45;;;;;;;3.90;1.40;;;;;;;20.68;41.72;98504.03;5048603;28;20533;-72
2022/11/10 09:11:10;;;;;;;3.47;1.43;;;;;;;20.64;42.08;98509.91;5051060;28;20219;-73
2022/11/10 09:13:36;;;;;;;5.33;1.50;;;;;;;20.72;41.88;98510.66;5060504;28;20189;-75
2022/11/10 09:16:03;;;;;;;4.80;1.40;;;;;;;20.83;40.88;98509.38;5051712;28;20198;-73
2022/11/10 09:18:28;;;;;;;4.40;1.10;;;;;;;20.84;40.77;98520.84;5047371;28;20647;-73
2022/11/10 09:20:54;;;;;;;4.17;1.23;;;;;;;20.87;41.10;98512.50;5051492;28;20460;-72
2022/11/10 09:23:20;;;;;;;3.23;1.00;;;;;;;20.63;40.10;98517.09;5051215;28;20183;-73
2022/11/10 09:25:53;;;;;;;6.20;1.40;;;;;;;20.78;40.90;98518.97;5051098;28;20186;-74
2022/11/10 09:28:20;;;;;;;10.43;1.90;;;;;;;20.98;40.55;98512.00;5050453;28;20508;-73
2022/11/10 09:30:47;;;;;;;3.67;1.30;;;;;;;21.19;40.07;98521.03;5050826;28;20476;-73
2022/11/10 09:33:12;;;;;;;3.63;1.50;;;;;;;21.32;40.75;98523.84;5050888;28;20460;-73
2022/11/10 09:35:38;;;;;;;9.73;1.70;;;;;;;21.48;40.57;98527.28;5051085;28;20421;-73
2022/11/10 09:38:04;;;;;;;3.73;1.83;;;;;;;21.69;39.82;98533.66;5052281;28;20197;-72
2022/11/10 09:40:29;;;;;;;3.03;1.53;;;;;;;21.91;39.38;98539.78;5051176;28;20650;-72
2022/11/10 09:42:58;;;;;;;4.37;1.70;;;;;;;22.21;38.84;98537.75;5046213;28;20780;-72
2022/11/10 09:45:31;;;;;;;6.30;1.97;;;;;;;22.20;37.29;98541.44;5045788;28;21270;-74
2022/11/10 09:48:00;;;;;;;7.90;1.50;;;;;;;22.38;37.39;98546.28;5046943;28;20490;-73
2022/11/10 09:50:54;;;;;;;10.10;1.67;;;;;;;22.59;37.21;98549.09;5050781;28;20886;-73
2022/11/10 09:53:38;;;;;;;3.53;1.50;;;;;;;22.75;37.18;98559.47;5046539;28;20433;-73
2022/11/10 09:56:05;;;;;;;4.37;1.70;;;;;;;22.66;36.83;98547.31;5050745;28;20424;-72
2022/11/10 09:58:36;;;;;;;15.07;1.57;;;;;;;22.82;36.19;98554.16;5040826;28;20551;-72
2022/11/10 10:01:44;;;;;;;4.23;1.63;;;;;;;23.09;36.23;98565.78;5050540;28;20465;-73
2022/11/10 10:04:09;;;;;;;9.13;1.80;;;;;;;23.39;35.63;98575.34;5028101;28;20527;-72
2022/11/10 10:06:43;;;;;;;5.07;1.80;;;;;;;23.45;35.82;98567.34;5027308;28;20458;-73
2022/11/10 10:09:21;;;;;;;4.53;1.40;;;;;;;23.32;33.95;98569.97;5030137;28;20210;-72
2022/11/10 10:11:58;;;;;;;7.00;1.60;;;;;;;23.67;34.35;98572.53;5047169;28;20434;-72
2022/11/10 10:14:36;;;;;;;3.57;1.50;;;;;;;23.89;34.10;98567.81;5051004;28;20487;-73
2022/11/10 10:17:24;;;;;;;2.40;1.37;;;;;;;24.04;33.97;98569.47;5047824;28;20471;-72
2022/11/10 10:19:57;;;;;;;5.10;1.40;;;;;;;23.89;32.95;98564.31;5044948;28;20481;-72
2022/11/10 10:22:28;;;;;;;3.37;1.03;;;;;;;23.99;32.58;98574.66;5048718;28;20462;-73
2022/11/10 10:24:57;;;;;;;2.90;1.13;;;;;;;24.24;32.53;98556.09;5043692;28;20454;-72
2022/11/10 10:27:25;;;;;;;3.80;1.33;;;;;;;24.45;32.20;98556.84;5048147;28;20475;-73
2022/11/10 10:29:50;;;;;;;5.10;1.50;;;;;;;24.51;32.20;98566.75;5050348;28;20430;-72
2022/11/10 10:32:17;;;;;;;2.80;1.10;;;;;;;24.57;32.58;98554.38;5049953;28;21153;-72
2022/11/10 10:34:43;;;;;;;6.20;1.10;;;;;;;24.24;32.52;98553.41;5050286;28;20187;-72
2022/11/10 10:37:46;;;;;;;4.30;1.20;;;;;;;24.45;32.31;98567.56;5051505;28;20429;-72
2022/11/10 10:40:21;;;;;;;3.20;0.80;;;;;;;24.27;31.79;98566.38;5049508;28;20825;-74
2022/11/10 10:42:46;;;;;;;3.33;1.20;;;;;;;24.28;32.59;98570.72;5049504;28;20461;-73
2022/11/10 10:45:14;;;;;;;2.40;1.20;;;;;;;24.68;31.81;98567.13;5050014;28;20433;-73
2022/11/10 10:47:40;;;;;;;4.37;1.13;;;;;;;24.92;31.19;98571.00;5044308;28;20191;-73
2022/11/10 10:50:21;;;;;;;2.13;1.17;;;;;;;24.90;30.67;98565.03;5044850;28;20433;-71
2022/11/10 10:53:06;;;;;;;1.87;1.00;;;;;;;25.06;30.76;98570.94;5050337;28;20203;-72
2022/11/10 10:55:34;;;;;;;5.67;1.17;;;;;;;25.11;30.76;98565.75;5053788;28;20417;-73
2022/11/10 10:58:05;;;;;;;5.20;1.70;;;;;;;24.81;30.88;98571.66;5063189;28;20429;-72
2022/11/10 11:00:30;;;;;;;2.60;1.00;;;;;;;24.92;32.10;98565.63;5046287;28;20429;-72
2022/11/10 11:03:05;;;;;;;4.90;1.30;;;;;;;24.78;31.55;98561.34;5042261;28;20438;-71
2022/11/10 11:05:30;;;;;;;7.50;4.33;;;;;;;24.98;31.46;98561.28;5049338;28;20189;-73
2022/11/10 11:07:58;;;;;;;2.50;1.10;;;;;;;23.67;31.89;98556.47;5061473;28;20436;-72
2022/11/10 11:10:27;;;;;;;4.13;1.53;;;;;;;23.81;31.38;98565.34;5054928;28;20191;-74
2022/11/10 11:12:52;;;;;;;7.10;2.67;;;;;;;24.25;31.60;98560.41;5054129;28;20438;-72
2022/11/10 11:15:27;;;;;;;3.70;1.60;;;;;;;24.57;31.13;98565.94;5054589;28;20425;-72
2022/11/10 11:17:58;;;;;;;5.20;3.63;;;;;;;24.90;30.46;98564.19;5050164;28;20182;-72
2022/11/10 11:20:39;;;;;;;8.50;4.80;;;;;;;25.16;29.31;98563.25;5052403;28;20482;-73
2022/11/10 11:23:28;;;;;;;4.43;2.20;;;;;;;25.20;29.32;98561.81;5054201;28;20422;-71
2022/11/10 11:26:01;;;;;;;6.90;4.43;;;;;;;25.20;29.42;98552.91;5049020;28;21233;-73
2022/11/10 11:28:34;;;;;;;3.20;1.70;;;;;;;25.28;28.56;98563.38;5051124;28;20414;-73
2022/11/10 11:30:59;;;;;;;6.03;2.03;;;;;;;25.33;28.67;98558.22;5049742;28;20424;-73
2022/11/10 11:33:32;;;;;;;11.93;6.67;;;;;;;25.26;28.72;98568.16;5053838;28;20434;-72
2022/11/10 11:36:06;;;;;;;8.60;3.70;;;;;;;24.99;29.36;98565.59;5053696;28;20179;-73
2022/11/10 11:38:37;;;;;;;8.33;2.10;;;;;;;24.96;28.73;98558.78;5045780;28;20837;-73
2022/11/10 11:41:16;;;;;;;2.37;1.00;;;;;;;24.73;28.52;98558.47;5053980;28;20464;-73
2022/11/10 11:44:05;;;;;;;6.30;4.20;;;;;;;24.54;29.27;98559.13;5054173;28;20428;-73